sensor_id;sensor_type;location;lat;lon;timestamp;pressure;altitude;pressure_sealevel;temperature;humidity
68889;BME280;55930;47.412;8.790;2023-05-21T00:01:52;94145.00;;;11.31;100.00
68889;BME280;55930;47.412;8.790;2023-05-21T00:05:13;94145.47;;;11.30;100.00
68889;BME280;55930;47.412;8.790;2023-05-21T00:08:34;94152.44;;;11.27;100.00
68889;BME280;55930;47.412;8.790;2023-05-21T00:11:54;94142.81;;;11.30;100.00
68889;BME280;55930;47.412;8.790;2023-05-21T00:15:15;94133.63;;;11.25;100.00
68889;BME280;55930;47.412;8.790;2023-05-21T00:18:36;94140.88;;;11.30;100.00
68889;BME280;55930;47.412;8.790;2023-05-21T00:21:58;94134.03;;;11.18;100.00
68889;BME280;55930;47.412;8.790;2023-05-21T00:25:21;94135.97;;;11.18;100.00
68889;BME280;55930;47.412;8.790;2023-05-21T00:28:43;94138.72;;;10.97;100.00
68889;BME280;55930;47.412;8.790;2023-05-21T00:32:04;94134.13;;;10.98;100.00
68889;BME280;55930;47.412;8.790;2023-05-21T00:35:25;94135.78;;;10.95;100.00
68889;BME280;55930;47.412;8.790;2023-05-21T00:38:46;94126.38;;;10.94;100.00
68889;BME280;55930;47.412;8.790;2023-05-21T00:42:07;94128.06;;;10.92;100.00
68889;BME280;55930;47.412;8.790;2023-05-21T00:45:27;94124.41;;;10.89;100.00
68889;BME280;55930;47.412;8.790;2023-05-21T00:48:49;94120.72;;;10.81;100.00
68889;BME280;55930;47.412;8.790;2023-05-21T00:52:10;94119.66;;;10.67;100.00
68889;BME280;55930;47.412;8.790;2023-05-21T00:55:30;94121.72;;;10.84;100.00
68889;BME280;55930;47.412;8.790;2023-05-21T00:58:51;94121.16;;;11.05;100.00
68889;BME280;55930;47.412;8.790;2023-05-21T01:02:12;94119.78;;;11.16;100.00
68889;BME280;55930;47.412;8.790;2023-05-21T01:05:34;94120.56;;;11.22;100.00
68889;BME280;55930;47.412;8.790;2023-05-21T01:08:55;94123.13;;;11.10;100.00
68889;BME280;55930;47.412;8.790;2023-05-21T01:12:17;94130.06;;;11.02;100.00
68889;BME280;55930;47.412;8.790;2023-05-21T01:15:37;94121.63;;;11.04;100.00
68889;BME280;55930;47.412;8.790;2023-05-21T01:18:58;94125.31;;;11.12;100.00
68889;BME280;55930;47.412;8.790;2023-05-21T01:22:22;94114.72;;;11.18;100.00
68889;BME280;55930;47.412;8.790;2023-05-21T01:25:45;94109.38;;;11.12;100.00
68889;BME280;55930;47.412;8.790;2023-05-21T01:29:05;94105.56;;;11.19;100.00
68889;BME280;55930;47.412;8.790;2023-05-21T01:32:39;94110.88;;;11.19;100.00
68889;BME280;55930;47.412;8.790;2023-05-21T01:36:33;94118.59;;;11.17;100.00
68889;BME280;55930;47.412;8.790;2023-05-21T01:40:38;94109.69;;;11.20;100.00
68889;BME280;55930;47.412;8.790;2023-05-21T01:44:02;94109.69;;;11.20;100.00
68889;BME280;55930;47.412;8.790;2023-05-21T01:47:25;94099.06;;;11.20;100.00
68889;BME280;55930;47.412;8.790;2023-05-21T01:50:48;94104.88;;;11.24;100.00
68889;BME280;55930;47.412;8.790;2023-05-21T01:54:09;94095.19;;;11.21;100.00
68889;BME280;55930;47.412;8.790;2023-05-21T01:57:29;94090.81;;;11.12;100.00
68889;BME280;55930;47.412;8.790;2023-05-21T02:00:50;94089.09;;;11.09;100.00
68889;BME280;55930;47.412;8.790;2023-05-21T02:04:10;94093.19;;;11.10;100.00
68889;BME280;55930;47.412;8.790;2023-05-21T02:07:31;94086.78;;;11.28;100.00
68889;BME280;55930;47.412;8.790;2023-05-21T02:10:51;94081.81;;;11.41;100.00
68889;BME280;55930;47.412;8.790;2023-05-21T02:14:12;94086.69;;;11.48;100.00
68889;BME280;55930;47.412;8.790;2023-05-21T02:17:33;94075.22;;;11.25;100.00
68889;BME280;55930;47.412;8.790;2023-05-21T02:20:53;94078.69;;;11.05;100.00
68889;BME280;55930;47.412;8.790;2023-05-21T02:24:14;94081.03;;;10.92;100.00
68889;BME280;55930;47.412;8.790;2023-05-21T02:27:35;94068.84;;;10.80;100.00
68889;BME280;55930;47.412;8.790;2023-05-21T02:30:56;94077.78;;;10.77;100.00
68889;BME280;55930;47.412;8.790;2023-05-21T02:34:17;94072.25;;;10.81;100.00
68889;BME280;55930;47.412;8.790;2023-05-21T02:37:39;94073.28;;;10.89;100.00
68889;BME280;55930;47.412;8.790;2023-05-21T02:41:01;94069.38;;;10.84;100.00
68889;BME280;55930;47.412;8.790;2023-05-21T02:44:21;94076.34;;;10.82;100.00
68889;BME280;55930;47.412;8.790;2023-05-21T02:47:44;94079.47;;;10.80;100.00
68889;BME280;55930;47.412;8.790;2023-05-21T02:51:07;94083.56;;;10.76;100.00
68889;BME280;55930;47.412;8.790;2023-05-21T02:54:28;94074.19;;;10.86;100.00
68889;BME280;55930;47.412;8.790;2023-05-21T02:57:48;94074.44;;;10.82;100.00
68889;BME280;55930;47.412;8.790;2023-05-21T03:01:08;94085.50;;;10.81;100.00
68889;BME280;55930;47.412;8.790;2023-05-21T03:04:29;94079.88;;;10.67;100.00
68889;BME280;55930;47.412;8.790;2023-05-21T03:07:52;94074.09;;;10.69;100.00
68889;BME280;55930;47.412;8.790;2023-05-21T03:11:12;94077.00;;;10.71;100.00
68889;BME280;55930;47.412;8.790;2023-05-21T03:14:32;94071.44;;;10.69;100.00
68889;BME280;55930;47.412;8.790;2023-05-21T03:17:55;94078.19;;;10.70;100.00
68889;BME280;55930;47.412;8.790;2023-05-21T03:21:16;94077.38;;;10.58;100.00
68889;BME280;55930;47.412;8.790;2023-05-21T03:24:37;94066.66;;;10.47;100.00
68889;BME280;55930;47.412;8.790;2023-05-21T03:27:57;94071.22;;;10.47;100.00
68889;BME280;55930;47.412;8.790;2023-05-21T03:31:18;94071.97;;;10.47;100.00
68889;BME280;55930;47.412;8.790;2023-05-21T03:34:41;94075.31;;;10.42;100.00
68889;BME280;55930;47.412;8.790;2023-05-21T03:38:01;94082.03;;;10.38;100.00
68889;BME280;55930;47.412;8.790;2023-05-21T03:41:22;94081.28;;;10.37;100.00
68889;BME280;55930;47.412;8.790;2023-05-21T03:44:42;94077.28;;;10.47;100.00
68889;BME280;55930;47.412;8.790;2023-05-21T03:48:03;94075.03;;;10.40;100.00
68889;BME280;55930;47.412;8.790;2023-05-21T03:51:26;94084.69;;;10.38;100.00
68889;BME280;55930;47.412;8.790;2023-05-21T03:54:46;94091.91;;;10.37;100.00
68889;BME280;55930;47.412;8.790;2023-05-21T03:58:07;94086.34;;;10.35;100.00
68889;BME280;55930;47.412;8.790;2023-05-21T04:01:28;94087.78;;;10.36;100.00
68889;BME280;55930;47.412;8.790;2023-05-21T04:04:49;94090.94;;;10.40;100.00
68889;BME280;55930;47.412;8.790;2023-05-21T04:08:10;94095.09;;;10.47;100.00
68889;BME280;55930;47.412;8.790;2023-05-21T04:11:31;94099.75;;;10.52;100.00
68889;BME280;55930;47.412;8.790;2023-05-21T04:14:51;94095.00;;;10.61;100.00
68889;BME280;55930;47.412;8.790;2023-05-21T04:18:12;94098.63;;;10.64;100.00
68889;BME280;55930;47.412;8.790;2023-05-21T04:21:33;94100.34;;;10.67;100.00
68889;BME280;55930;47.412;8.790;2023-05-21T04:24:53;94105.06;;;10.83;100.00
68889;BME280;55930;47.412;8.790;2023-05-21T04:28:13;94110.22;;;10.92;100.00
68889;BME280;55930;47.412;8.790;2023-05-21T04:31:39;94111.19;;;10.95;100.00
68889;BME280;55930;47.412;8.790;2023-05-21T04:35:00;94111.78;;;11.10;100.00
68889;BME280;55930;47.412;8.790;2023-05-21T04:38:20;94116.19;;;11.19;100.00
68889;BME280;55930;47.412;8.790;2023-05-21T04:41:40;94116.47;;;11.26;100.00
68889;BME280;55930;47.412;8.790;2023-05-21T04:45:01;94119.22;;;11.37;100.00
68889;BME280;55930;47.412;8.790;2023-05-21T04:48:21;94119.31;;;11.54;100.00
68889;BME280;55930;47.412;8.790;2023-05-21T04:51:46;94119.31;;;11.54;100.00
68889;BME280;55930;47.412;8.790;2023-05-21T04:55:07;94129.19;;;11.48;100.00
68889;BME280;55930;47.412;8.790;2023-05-21T04:58:28;94124.38;;;11.52;100.00
68889;BME280;55930;47.412;8.790;2023-05-21T05:01:48;94127.38;;;11.71;100.00
68889;BME280;55930;47.412;8.790;2023-05-21T05:05:10;94129.34;;;11.76;100.00
68889;BME280;55930;47.412;8.790;2023-05-21T05:08:30;94137.53;;;11.72;100.00
68889;BME280;55930;47.412;8.790;2023-05-21T05:11:50;94132.72;;;11.76;100.00
68889;BME280;55930;47.412;8.790;2023-05-21T05:15:11;94130.44;;;12.01;100.00
68889;BME280;55930;47.412;8.790;2023-05-21T05:18:31;94132.22;;;12.32;100.00
68889;BME280;55930;47.412;8.790;2023-05-21T05:21:53;94138.56;;;12.56;100.00
68889;BME280;55930;47.412;8.790;2023-05-21T05:25:13;94136.66;;;12.68;100.00
68889;BME280;55930;47.412;8.790;2023-05-21T05:28:33;94137.88;;;12.73;100.00
68889;BME280;55930;47.412;8.790;2023-05-21T05:31:56;94138.84;;;12.86;100.00
68889;BME280;55930;47.412;8.790;2023-05-21T05:35:16;94138.13;;;12.91;100.00
68889;BME280;55930;47.412;8.790;2023-05-21T05:38:37;94143.00;;;13.15;100.00
68889;BME280;55930;47.412;8.790;2023-05-21T05:42:00;94142.03;;;13.24;100.00
68889;BME280;55930;47.412;8.790;2023-05-21T05:45:20;94141.81;;;13.16;100.00
68889;BME280;55930;47.412;8.790;2023-05-21T05:48:41;94145.38;;;13.52;100.00
68889;BME280;55930;47.412;8.790;2023-05-21T05:52:01;94138.00;;;14.03;100.00
68889;BME280;55930;47.412;8.790;2023-05-21T05:55:22;94135.44;;;14.33;100.00
68889;BME280;55930;47.412;8.790;2023-05-21T05:58:44;94140.53;;;14.36;100.00
68889;BME280;55930;47.412;8.790;2023-05-21T06:02:04;94148.41;;;14.12;100.00
68889;BME280;55930;47.412;8.790;2023-05-21T06:05:25;94146.88;;;14.28;100.00
68889;BME280;55930;47.412;8.790;2023-05-21T06:08:45;94144.66;;;14.43;100.00
68889;BME280;55930;47.412;8.790;2023-05-21T06:12:08;94138.94;;;14.63;100.00
68889;BME280;55930;47.412;8.790;2023-05-21T06:15:28;94139.72;;;14.93;100.00
68889;BME280;55930;47.412;8.790;2023-05-21T06:18:49;94144.91;;;15.46;100.00
68889;BME280;55930;47.412;8.790;2023-05-21T06:22:09;94148.72;;;15.50;100.00
68889;BME280;55930;47.412;8.790;2023-05-21T06:25:30;94144.25;;;15.34;100.00
68889;BME280;55930;47.412;8.790;2023-05-21T06:28:51;94142.44;;;15.48;100.00
68889;BME280;55930;47.412;8.790;2023-05-21T06:32:11;94144.59;;;15.79;100.00
68889;BME280;55930;47.412;8.790;2023-05-21T06:35:31;94138.44;;;16.08;100.00
68889;BME280;55930;47.412;8.790;2023-05-21T06:38:55;94141.59;;;16.50;100.00
68889;BME280;55930;47.412;8.790;2023-05-21T06:42:16;94143.63;;;16.01;100.00
68889;BME280;55930;47.412;8.790;2023-05-21T06:45:36;94138.03;;;16.42;100.00
68889;BME280;55930;47.412;8.790;2023-05-21T06:48:56;94136.09;;;16.61;100.00
68889;BME280;55930;47.412;8.790;2023-05-21T06:52:19;94141.44;;;16.99;100.00
68889;BME280;55930;47.412;8.790;2023-05-21T06:55:40;94147.84;;;17.09;100.00
68889;BME280;55930;47.412;8.790;2023-05-21T06:59:00;94150.72;;;17.11;100.00
68889;BME280;55930;47.412;8.790;2023-05-21T07:02:20;94151.66;;;17.45;100.00
68889;BME280;55930;47.412;8.790;2023-05-21T07:05:41;94155.84;;;17.73;100.00
68889;BME280;55930;47.412;8.790;2023-05-21T07:09:01;94156.28;;;17.45;100.00
68889;BME280;55930;47.412;8.790;2023-05-21T07:12:22;94155.91;;;17.54;100.00
68889;BME280;55930;47.412;8.790;2023-05-21T07:15:42;94145.03;;;18.18;100.00
68889;BME280;55930;47.412;8.790;2023-05-21T07:19:02;94152.31;;;18.91;100.00
68889;BME280;55930;47.412;8.790;2023-05-21T07:22:23;94155.09;;;18.38;100.00
68889;BME280;55930;47.412;8.790;2023-05-21T07:25:43;94146.78;;;18.76;100.00
68889;BME280;55930;47.412;8.790;2023-05-21T07:29:03;94150.53;;;18.46;100.00
68889;BME280;55930;47.412;8.790;2023-05-21T07:32:24;94148.81;;;18.22;100.00
68889;BME280;55930;47.412;8.790;2023-05-21T07:35:45;94143.34;;;18.41;100.00
68889;BME280;55930;47.412;8.790;2023-05-21T07:39:06;94144.41;;;18.72;100.00
68889;BME280;55930;47.412;8.790;2023-05-21T07:42:26;94140.16;;;18.77;100.00
68889;BME280;55930;47.412;8.790;2023-05-21T07:45:46;94141.28;;;18.81;100.00
68889;BME280;55930;47.412;8.790;2023-05-21T07:49:07;94118.97;;;19.07;100.00
68889;BME280;55930;47.412;8.790;2023-05-21T07:52:32;94127.88;;;19.93;99.01
68889;BME280;55930;47.412;8.790;2023-05-21T07:55:52;94127.28;;;20.22;99.38
68889;BME280;55930;47.412;8.790;2023-05-21T07:59:13;94130.28;;;20.47;94.47
68889;BME280;55930;47.412;8.790;2023-05-21T08:02:33;94137.66;;;21.06;91.34
68889;BME280;55930;47.412;8.790;2023-05-21T08:05:54;94136.41;;;21.98;86.69
68889;BME280;55930;47.412;8.790;2023-05-21T08:09:14;94136.94;;;21.89;87.12
68889;BME280;55930;47.412;8.790;2023-05-21T08:12:35;94138.19;;;21.95;83.63
68889;BME280;55930;47.412;8.790;2023-05-21T08:15:55;94128.16;;;21.58;85.62
68889;BME280;55930;47.412;8.790;2023-05-21T08:19:15;94133.84;;;22.15;84.05
68889;BME280;55930;47.412;8.790;2023-05-21T08:22:36;94131.16;;;22.15;86.32
68889;BME280;55930;47.412;8.790;2023-05-21T08:25:56;94132.78;;;21.95;83.85
68889;BME280;55930;47.412;8.790;2023-05-21T08:29:16;94130.00;;;22.41;83.30
68889;BME280;55930;47.412;8.790;2023-05-21T08:32:37;94141.50;;;23.46;78.72
68889;BME280;55930;47.412;8.790;2023-05-21T08:35:57;94131.41;;;23.89;73.74
68889;BME280;55930;47.412;8.790;2023-05-21T08:39:19;94134.13;;;23.39;75.37
68889;BME280;55930;47.412;8.790;2023-05-21T08:42:48;94139.03;;;25.49;71.39
68889;BME280;55930;47.412;8.790;2023-05-21T08:46:09;94132.59;;;26.78;61.80
68889;BME280;55930;47.412;8.790;2023-05-21T08:49:31;94129.69;;;26.85;62.30
68889;BME280;55930;47.412;8.790;2023-05-21T08:52:54;94134.28;;;27.95;56.37
68889;BME280;55930;47.412;8.790;2023-05-21T08:56:16;94126.16;;;26.73;56.68
68889;BME280;55930;47.412;8.790;2023-05-21T08:59:36;94134.72;;;27.39;56.58
68889;BME280;55930;47.412;8.790;2023-05-21T09:02:59;94133.84;;;27.77;54.41
68889;BME280;55930;47.412;8.790;2023-05-21T09:06:22;94143.09;;;29.02;53.46
68889;BME280;55930;47.412;8.790;2023-05-21T09:09:54;94140.25;;;27.20;55.06
68889;BME280;55930;47.412;8.790;2023-05-21T09:13:17;94134.28;;;27.95;52.22
68889;BME280;55930;47.412;8.790;2023-05-21T09:16:38;94139.28;;;27.06;53.26
68889;BME280;55930;47.412;8.790;2023-05-21T09:23:35;94136.28;;;25.96;55.21
68889;BME280;55930;47.412;8.790;2023-05-21T09:26:56;94135.06;;;26.45;57.52
68889;BME280;55930;47.412;8.790;2023-05-21T09:30:19;94142.88;;;26.98;54.80
68889;BME280;55930;47.412;8.790;2023-05-21T09:33:45;94143.78;;;26.62;54.13
68889;BME280;55930;47.412;8.790;2023-05-21T09:37:06;94145.41;;;27.16;53.80
68889;BME280;55930;47.412;8.790;2023-05-21T09:40:26;94144.81;;;27.89;52.04
68889;BME280;55930;47.412;8.790;2023-05-21T09:43:47;94150.59;;;27.12;51.92
68889;BME280;55930;47.412;8.790;2023-05-21T09:47:08;94152.06;;;26.93;51.00
68889;BME280;55930;47.412;8.790;2023-05-21T09:50:34;94150.25;;;27.67;51.00
68889;BME280;55930;47.412;8.790;2023-05-21T09:53:56;94146.75;;;25.99;55.54
68889;BME280;55930;47.412;8.790;2023-05-21T09:57:23;94157.81;;;26.97;53.57
68889;BME280;55930;47.412;8.790;2023-05-21T10:00:43;94155.91;;;26.04;56.52
68889;BME280;55930;47.412;8.790;2023-05-21T10:04:11;94149.63;;;26.01;55.82
68889;BME280;55930;47.412;8.790;2023-05-21T10:07:32;94147.72;;;27.10;49.97
68889;BME280;55930;47.412;8.790;2023-05-21T10:10:54;94149.59;;;27.07;51.08
68889;BME280;55930;47.412;8.790;2023-05-21T10:14:19;94151.09;;;26.60;51.54
68889;BME280;55930;47.412;8.790;2023-05-21T10:17:42;94143.91;;;26.74;50.74
68889;BME280;55930;47.412;8.790;2023-05-21T10:21:03;94152.06;;;26.93;54.60
68889;BME280;55930;47.412;8.790;2023-05-21T10:24:26;94139.34;;;26.38;53.45
68889;BME280;55930;47.412;8.790;2023-05-21T10:27:47;94142.13;;;27.79;50.20
68889;BME280;55930;47.412;8.790;2023-05-21T10:31:08;94139.72;;;27.42;50.24
68889;BME280;55930;47.412;8.790;2023-05-21T10:34:29;94126.31;;;26.56;52.36
68889;BME280;55930;47.412;8.790;2023-05-21T10:37:53;94136.31;;;27.94;48.59
68889;BME280;55930;47.412;8.790;2023-05-21T10:41:17;94129.88;;;28.98;48.78
68889;BME280;55930;47.412;8.790;2023-05-21T10:45:05;94125.06;;;28.75;46.92
68889;BME280;55930;47.412;8.790;2023-05-21T11:03:03;94127.03;;;31.53;41.14
68889;BME280;55930;47.412;8.790;2023-05-21T11:06:24;94117.91;;;31.48;41.62
68889;BME280;55930;47.412;8.790;2023-05-21T11:09:45;94121.72;;;31.69;39.09
68889;BME280;55930;47.412;8.790;2023-05-21T11:13:07;94111.03;;;31.75;40.95
68889;BME280;55930;47.412;8.790;2023-05-21T11:16:30;94110.75;;;30.77;40.47
68889;BME280;55930;47.412;8.790;2023-05-21T11:19:53;94109.75;;;30.84;39.33
68889;BME280;55930;47.412;8.790;2023-05-21T11:23:13;94130.66;;;30.40;40.55
68889;BME280;55930;47.412;8.790;2023-05-21T11:26:58;94122.06;;;29.16;45.27
68889;BME280;55930;47.412;8.790;2023-05-21T11:30:35;94113.41;;;29.19;43.33
68889;BME280;55930;47.412;8.790;2023-05-21T11:34:35;94121.69;;;28.11;43.78
68889;BME280;55930;47.412;8.790;2023-05-21T11:37:56;94120.09;;;29.40;43.95
68889;BME280;55930;47.412;8.790;2023-05-21T11:41:18;94106.63;;;29.09;42.87
68889;BME280;55930;47.412;8.790;2023-05-21T11:44:40;94118.28;;;30.39;40.83
68889;BME280;55930;47.412;8.790;2023-05-21T11:48:01;94117.47;;;30.88;37.98
68889;BME280;55930;47.412;8.790;2023-05-21T11:51:23;94112.38;;;32.30;36.42
68889;BME280;55930;47.412;8.790;2023-05-21T11:54:51;94111.72;;;31.62;35.71
68889;BME280;55930;47.412;8.790;2023-05-21T11:58:17;94105.38;;;31.18;37.08
68889;BME280;55930;47.412;8.790;2023-05-21T12:01:41;94112.00;;;31.40;39.34
68889;BME280;55930;47.412;8.790;2023-05-21T12:05:01;94116.38;;;31.45;38.23
68889;BME280;55930;47.412;8.790;2023-05-21T12:08:22;94118.59;;;32.17;38.72
68889;BME280;55930;47.412;8.790;2023-05-21T12:11:49;94118.00;;;28.49;41.66
68889;BME280;55930;47.412;8.790;2023-05-21T12:15:10;94113.22;;;31.24;40.70
68889;BME280;55930;47.412;8.790;2023-05-21T12:18:32;94111.22;;;30.73;39.41
68889;BME280;55930;47.412;8.790;2023-05-21T12:21:53;94112.81;;;31.56;37.35
68889;BME280;55930;47.412;8.790;2023-05-21T12:25:18;94120.19;;;32.36;37.76
68889;BME280;55930;47.412;8.790;2023-05-21T12:28:39;94109.91;;;31.52;35.38
68889;BME280;55930;47.412;8.790;2023-05-21T12:32:00;94112.91;;;31.31;38.28
68889;BME280;55930;47.412;8.790;2023-05-21T12:35:22;94113.41;;;29.78;39.80
68889;BME280;55930;47.412;8.790;2023-05-21T12:38:42;94109.47;;;29.22;40.85
68889;BME280;55930;47.412;8.790;2023-05-21T12:42:05;94110.66;;;29.89;39.96
68889;BME280;55930;47.412;8.790;2023-05-21T12:45:26;94114.72;;;29.30;40.26
68889;BME280;55930;47.412;8.790;2023-05-21T12:48:49;94117.63;;;28.00;42.61
68889;BME280;55930;47.412;8.790;2023-05-21T12:52:11;94115.84;;;28.80;41.20
68889;BME280;55930;47.412;8.790;2023-05-21T12:55:32;94116.41;;;29.58;41.87
68889;BME280;55930;47.412;8.790;2023-05-21T12:58:54;94118.00;;;30.47;35.48
68889;BME280;55930;47.412;8.790;2023-05-21T13:02:18;94117.88;;;28.59;40.40
68889;BME280;55930;47.412;8.790;2023-05-21T13:05:41;94116.56;;;28.92;39.29
68889;BME280;55930;47.412;8.790;2023-05-21T13:09:04;94122.19;;;29.06;40.52
68889;BME280;55930;47.412;8.790;2023-05-21T13:12:27;94121.81;;;28.34;40.60
68889;BME280;55930;47.412;8.790;2023-05-21T13:15:47;94117.13;;;29.36;41.66
68889;BME280;55930;47.412;8.790;2023-05-21T13:19:07;94113.09;;;29.48;40.07
68889;BME280;55930;47.412;8.790;2023-05-21T13:22:28;94114.53;;;30.97;38.41
68889;BME280;55930;47.412;8.790;2023-05-21T13:25:48;94114.50;;;27.73;39.20
68889;BME280;55930;47.412;8.790;2023-05-21T13:29:09;94107.69;;;29.97;36.49
68889;BME280;55930;47.412;8.790;2023-05-21T13:32:29;94104.19;;;31.48;35.63
68889;BME280;55930;47.412;8.790;2023-05-21T13:35:52;94114.03;;;32.51;34.24
68889;BME280;55930;47.412;8.790;2023-05-21T13:39:12;94114.16;;;31.42;34.71
68889;BME280;55930;47.412;8.790;2023-05-21T13:42:33;94114.03;;;29.76;38.55
68889;BME280;55930;47.412;8.790;2023-05-21T13:45:54;94108.78;;;29.34;39.11
68889;BME280;55930;47.412;8.790;2023-05-21T13:49:17;94111.38;;;29.78;37.34
68889;BME280;55930;47.412;8.790;2023-05-21T13:52:38;94109.97;;;29.77;37.39
68889;BME280;55930;47.412;8.790;2023-05-21T13:55:58;94113.94;;;30.23;37.02
68889;BME280;55930;47.412;8.790;2023-05-21T13:59:22;94103.56;;;30.21;34.58
68889;BME280;55930;47.412;8.790;2023-05-21T14:02:43;94114.03;;;30.87;36.72
68889;BME280;55930;47.412;8.790;2023-05-21T14:06:03;94109.91;;;30.74;35.53
68889;BME280;55930;47.412;8.790;2023-05-21T14:09:25;94105.66;;;28.27;35.57
68889;BME280;55930;47.412;8.790;2023-05-21T14:12:48;94113.91;;;27.74;37.72
68889;BME280;55930;47.412;8.790;2023-05-21T14:16:09;94109.84;;;26.35;42.40
68889;BME280;55930;47.412;8.790;2023-05-21T14:19:30;94099.59;;;26.83;41.20
68889;BME280;55930;47.412;8.790;2023-05-21T14:22:50;94105.03;;;27.02;39.13
68889;BME280;55930;47.412;8.790;2023-05-21T14:26:11;94103.44;;;27.71;40.83
68889;BME280;55930;47.412;8.790;2023-05-21T14:29:31;94109.00;;;28.25;38.42
68889;BME280;55930;47.412;8.790;2023-05-21T14:32:54;94103.63;;;28.93;37.49
68889;BME280;55930;47.412;8.790;2023-05-21T14:36:15;94101.69;;;30.12;34.23
68889;BME280;55930;47.412;8.790;2023-05-21T14:39:35;94101.28;;;29.81;35.16
68889;BME280;55930;47.412;8.790;2023-05-21T14:42:56;94087.47;;;29.79;34.01
68889;BME280;55930;47.412;8.790;2023-05-21T14:46:16;94084.88;;;30.80;32.60
68889;BME280;55930;47.412;8.790;2023-05-21T14:49:37;94085.88;;;30.11;33.21
68889;BME280;55930;47.412;8.790;2023-05-21T14:53:07;94083.50;;;30.67;34.52
68889;BME280;55930;47.412;8.790;2023-05-21T14:56:27;94090.47;;;31.89;30.71
68889;BME280;55930;47.412;8.790;2023-05-21T14:59:48;94092.31;;;31.71;29.89
68889;BME280;55930;47.412;8.790;2023-05-21T15:03:08;94086.81;;;31.58;32.17
68889;BME280;55930;47.412;8.790;2023-05-21T15:06:29;94091.88;;;32.18;31.70
68889;BME280;55930;47.412;8.790;2023-05-21T15:09:49;94087.69;;;30.68;33.09
68889;BME280;55930;47.412;8.790;2023-05-21T15:13:09;94087.41;;;28.74;33.45
68889;BME280;55930;47.412;8.790;2023-05-21T15:16:30;94082.81;;;29.93;34.34
68889;BME280;55930;47.412;8.790;2023-05-21T15:19:50;94088.69;;;29.64;36.24
68889;BME280;55930;47.412;8.790;2023-05-21T15:23:11;94084.13;;;29.92;35.01
68889;BME280;55930;47.412;8.790;2023-05-21T15:26:31;94083.47;;;30.79;33.28
68889;BME280;55930;47.412;8.790;2023-05-21T15:29:51;94074.06;;;29.71;34.66
68889;BME280;55930;47.412;8.790;2023-05-21T15:33:14;94080.66;;;29.43;35.45
68889;BME280;55930;47.412;8.790;2023-05-21T15:36:34;94077.41;;;28.88;34.62
68889;BME280;55930;47.412;8.790;2023-05-21T15:39:55;94091.19;;;27.82;36.24
68889;BME280;55930;47.412;8.790;2023-05-21T15:43:16;94080.66;;;28.09;36.66
68889;BME280;55930;47.412;8.790;2023-05-21T15:46:36;94083.31;;;28.40;35.42
68889;BME280;55930;47.412;8.790;2023-05-21T15:49:56;94077.41;;;29.11;33.25
68889;BME280;55930;47.412;8.790;2023-05-21T15:53:21;94075.97;;;29.22;31.83
68889;BME280;55930;47.412;8.790;2023-05-21T15:56:43;94078.19;;;27.70;33.77
68889;BME280;55930;47.412;8.790;2023-05-21T16:00:05;94085.75;;;27.51;35.76
68889;BME280;55930;47.412;8.790;2023-05-21T16:03:25;94087.56;;;26.86;38.81
68889;BME280;55930;47.412;8.790;2023-05-21T16:06:46;94081.84;;;26.82;39.27
68889;BME280;55930;47.412;8.790;2023-05-21T16:10:09;94088.22;;;26.56;40.71
68889;BME280;55930;47.412;8.790;2023-05-21T16:13:30;94090.41;;;26.28;42.16
68889;BME280;55930;47.412;8.790;2023-05-21T16:16:50;94081.19;;;25.66;42.41
68889;BME280;55930;47.412;8.790;2023-05-21T16:20:11;94084.19;;;25.61;42.67
68889;BME280;55930;47.412;8.790;2023-05-21T16:23:32;94084.47;;;25.65;43.66
68889;BME280;55930;47.412;8.790;2023-05-21T16:26:53;94081.22;;;25.39;44.29
68889;BME280;55930;47.412;8.790;2023-05-21T16:30:13;94081.03;;;25.18;45.32
68889;BME280;55930;47.412;8.790;2023-05-21T16:33:34;94088.34;;;25.25;47.89
68889;BME280;55930;47.412;8.790;2023-05-21T16:36:54;94089.25;;;25.37;48.43
68889;BME280;55930;47.412;8.790;2023-05-21T16:40:15;94092.78;;;24.94;45.56
68889;BME280;55930;47.412;8.790;2023-05-21T16:43:36;94086.38;;;25.35;44.41
68889;BME280;55930;47.412;8.790;2023-05-21T16:46:57;94101.53;;;25.38;46.15
68889;BME280;55930;47.412;8.790;2023-05-21T16:50:18;94095.16;;;25.53;45.38
68889;BME280;55930;47.412;8.790;2023-05-21T16:53:38;94100.13;;;25.37;45.16
68889;BME280;55930;47.412;8.790;2023-05-21T16:56:59;94098.69;;;24.83;46.59
68889;BME280;55930;47.412;8.790;2023-05-21T17:00:20;94102.38;;;24.95;45.38
68889;BME280;55930;47.412;8.790;2023-05-21T17:03:40;94092.38;;;24.97;46.40
68889;BME280;55930;47.412;8.790;2023-05-21T17:07:03;94092.72;;;24.84;52.14
68889;BME280;55930;47.412;8.790;2023-05-21T17:10:23;94098.41;;;24.78;44.94
68889;BME280;55930;47.412;8.790;2023-05-21T17:13:44;94093.97;;;24.73;46.78
68889;BME280;55930;47.412;8.790;2023-05-21T17:17:10;94095.56;;;24.32;49.36
68889;BME280;55930;47.412;8.790;2023-05-21T17:20:30;94093.38;;;23.96;50.17
68889;BME280;55930;47.412;8.790;2023-05-21T17:23:51;94100.13;;;23.28;54.20
68889;BME280;55930;47.412;8.790;2023-05-21T17:27:12;94103.97;;;22.93;58.66
68889;BME280;55930;47.412;8.790;2023-05-21T17:30:32;94107.50;;;22.71;57.20
68889;BME280;55930;47.412;8.790;2023-05-21T17:33:53;94109.66;;;22.72;56.68
68889;BME280;55930;47.412;8.790;2023-05-21T17:37:15;94108.66;;;22.05;60.47
68889;BME280;55930;47.412;8.790;2023-05-21T17:40:35;94118.56;;;21.87;61.48
68889;BME280;55930;47.412;8.790;2023-05-21T17:43:58;94111.06;;;21.32;66.23
68889;BME280;55930;47.412;8.790;2023-05-21T17:47:19;94110.47;;;21.04;69.25
68889;BME280;55930;47.412;8.790;2023-05-21T17:50:39;94118.56;;;20.96;69.46
68889;BME280;55930;47.412;8.790;2023-05-21T17:53:59;94110.63;;;20.83;69.18
68889;BME280;55930;47.412;8.790;2023-05-21T17:57:20;94116.88;;;20.70;70.07
68889;BME280;55930;47.412;8.790;2023-05-21T18:00:40;94109.28;;;20.53;72.23